Time;durP1;ratioP1;P1;durP2;ratioP2;P2;SDS_P1;SDS_P2;PMS_P1;PMS_P2;Temp;Humidity;BMP_temperature;BMP_pressure;BME280_temperature;BME280_humidity;BME280_pressure;Samples;Min_cycle;Max_cycle;Signal;HPM_P1;HPM_P2
2023/04/01 00:00:48;;;;;;;;;;;11.70;99.90;;;;;;5052754;28;19909;-74
2023/04/01 00:03:14;;;;;;;;;;;11.70;99.90;;;;;;5052172;28;19962;-73
2023/04/01 00:05:40;;;;;;;;;;;11.70;99.90;;;;;;5053584;28;19919;-74
2023/04/01 00:08:06;;;;;;;;;;;11.70;99.90;;;;;;5054562;28;19945;-74
2023/04/01 00:10:31;;;;;;;;;;;11.80;99.90;;;;;;5052760;28;19915;-73
2023/04/01 00:12:57;;;;;;;;;;;11.60;99.90;;;;;;5052316;28;20394;-74
2023/04/01 00:15:23;;;;;;;;;;;11.60;99.90;;;;;;5054094;28;19994;-74
2023/04/01 00:17:51;;;;;;;;;;;11.50;99.90;;;;;;5052174;28;19963;-74
2023/04/01 00:20:17;;;;;;;;;;;11.50;99.90;;;;;;5052659;28;19909;-74
2023/04/01 00:22:43;;;;;;;;;;;11.60;99.90;;;;;;5053588;28;19909;-74
2023/04/01 00:25:09;;;;;;;;;;;11.60;99.90;;;;;;5052623;28;19917;-74
2023/04/01 00:27:34;;;;;;;;;;;11.50;99.90;;;;;;5052925;28;19947;-74
2023/04/01 00:30:01;;;;;;;;;;;11.40;99.90;;;;;;5053823;28;19913;-74
2023/04/01 00:32:26;;;;;;;;;;;11.30;99.90;;;;;;5051540;28;20251;-74
2023/04/01 00:34:52;;;;;;;;;;;11.20;99.90;;;;;;5052584;28;19908;-74
2023/04/01 00:37:19;;;;;;;;;;;11.20;99.90;;;;;;5054266;28;20159;-77
2023/04/01 00:39:45;;;;;;;;;;;11.10;99.90;;;;;;5053581;28;19909;-74
2023/04/01 00:42:14;;;;;;;;;;;11.00;99.90;;;;;;5052688;28;19956;-74
2023/04/01 00:44:40;;;;;;;;;;;11.00;99.90;;;;;;5052108;28;20290;-74
2023/04/01 00:47:06;;;;;;;;;;;11.00;99.90;;;;;;5054082;28;20091;-74
2023/04/01 00:49:40;;;;;;;;;;;11.00;99.90;;;;;;5053819;28;19916;-74
2023/04/01 00:52:07;;;;;;;;;;;11.10;99.90;;;;;;5053838;28;20283;-74
2023/04/01 00:54:34;;;;;;;;;;;11.10;99.90;;;;;;5053584;28;19908;-74
2023/04/01 00:57:08;;;;;;;;;;;11.10;99.90;;;;;;5053331;28;20367;-74
2023/04/01 00:59:34;;;;;;;;;;;11.10;99.90;;;;;;5053448;28;19952;-74
2023/04/01 01:02:01;;;;;;;;;;;11.10;99.90;;;;;;5053622;28;19963;-74
2023/04/01 01:04:29;;;;;;;;;;;11.20;99.90;;;;;;5051508;28;19912;-74
2023/04/01 01:06:58;;;;;;;;;;;11.20;99.90;;;;;;5053312;28;19948;-75
2023/04/01 01:09:33;;;;;;;;;;;11.20;99.90;;;;;;5053212;28;19915;-74
2023/04/01 01:12:14;;;;;;;;;;;11.10;99.90;;;;;;5053310;28;19909;-73
2023/04/01 01:14:59;;;;;;;;;;;11.10;99.90;;;;;;5051504;28;20001;-74
2023/04/01 01:17:30;;;;;;;;;;;11.10;99.90;;;;;;5053489;28;20379;-74
2023/04/01 01:20:15;;;;;;;;;;;11.00;99.90;;;;;;5053219;28;19909;-74
2023/04/01 01:22:43;;;;;;;;;;;11.00;99.90;;;;;;5051556;28;19913;-76
2023/04/01 01:25:09;;;;;;;;;;;10.90;99.90;;;;;;5052134;28;19924;-74
2023/04/01 01:27:37;;;;;;;;;;;10.90;99.90;;;;;;5053428;28;19935;-74
2023/04/01 01:30:03;;;;;;;;;;;11.00;99.90;;;;;;5053106;28;19919;-74
2023/04/01 01:32:48;;;;;;;;;;;11.00;99.90;;;;;;5050759;28;20268;-74
2023/04/01 01:35:40;;;;;;;;;;;10.90;99.90;;;;;;5053043;28;19909;-74
2023/04/01 01:38:07;;;;;;;;;;;10.90;99.90;;;;;;5052559;28;20000;-74
2023/04/01 01:40:34;;;;;;;;;;;10.90;99.90;;;;;;5051637;28;19909;-74
2023/04/01 01:43:03;;;;;;;;;;;10.80;99.90;;;;;;5051447;28;19909;-73
2023/04/01 01:45:31;;;;;;;;;;;10.80;99.90;;;;;;5054910;28;20371;-74
2023/04/01 01:47:58;;;;;;;;;;;10.80;99.90;;;;;;5056875;28;19915;-74
2023/04/01 01:50:26;;;;;;;;;;;10.80;99.90;;;;;;5056442;28;19963;-74
2023/04/01 01:52:59;;;;;;;;;;;10.80;99.90;;;;;;5055192;28;19915;-74
2023/04/01 01:55:30;;;;;;;;;;;10.80;99.90;;;;;;5055045;28;19915;-74
2023/04/01 01:58:00;;;;;;;;;;;10.90;99.90;;;;;;5055136;28;19908;-74
2023/04/01 02:00:26;;;;;;;;;;;11.00;99.90;;;;;;5054763;28;20387;-74
2023/04/01 02:02:53;;;;;;;;;;;11.00;99.90;;;;;;5054684;28;19909;-74
2023/04/01 02:05:24;;;;;;;;;;;11.00;99.90;;;;;;5054787;28;19924;-74
2023/04/01 02:08:23;;;;;;;;;;;11.00;99.90;;;;;;5056058;28;19952;-74
2023/04/01 02:10:55;;;;;;;;;;;11.00;99.90;;;;;;5054535;28;20028;-74
2023/04/01 02:13:30;;;;;;;;;;;11.10;99.90;;;;;;5056011;28;20496;-74
2023/04/01 02:15:58;;;;;;;;;;;11.00;99.90;;;;;;5054393;28;19924;-74
2023/04/01 02:18:24;;;;;;;;;;;10.90;99.90;;;;;;5056088;28;19918;-74
2023/04/01 02:20:50;;;;;;;;;;;11.00;99.90;;;;;;5056312;28;19909;-74
2023/04/01 02:23:16;;;;;;;;;;;11.00;99.90;;;;;;5054277;28;19939;-74
2023/04/01 02:25:42;;;;;;;;;;;11.00;99.90;;;;;;5055651;28;20352;-75
2023/04/01 02:28:08;;;;;;;;;;;11.00;99.90;;;;;;5054152;28;19915;-74
2023/04/01 02:30:35;;;;;;;;;;;11.00;99.90;;;;;;5054298;28;20000;-74
2023/04/01 02:33:02;;;;;;;;;;;11.00;99.90;;;;;;5054051;28;19919;-74
2023/04/01 02:35:28;;;;;;;;;;;11.00;99.90;;;;;;5056144;28;19988;-74
2023/04/01 02:37:54;;;;;;;;;;;11.00;99.90;;;;;;5054729;28;19913;-74
2023/04/01 02:40:20;;;;;;;;;;;11.00;99.90;;;;;;5055785;28;19923;-74
2023/04/01 02:42:49;;;;;;;;;;;11.00;99.90;;;;;;5054000;28;19909;-74
2023/04/01 02:45:14;;;;;;;;;;;11.00;99.90;;;;;;5055424;28;19913;-74
2023/04/01 02:47:40;;;;;;;;;;;11.10;99.90;;;;;;5054358;28;19919;-74
2023/04/01 02:50:07;;;;;;;;;;;11.10;99.90;;;;;;5055821;28;19909;-74
2023/04/01 02:52:33;;;;;;;;;;;11.10;99.90;;;;;;5055335;28;19947;-74
2023/04/01 02:54:58;;;;;;;;;;;11.10;99.90;;;;;;5055306;28;19920;-74
2023/04/01 02:57:25;;;;;;;;;;;11.20;99.90;;;;;;5054878;28;19909;-74
2023/04/01 02:59:50;;;;;;;;;;;11.20;99.90;;;;;;5053754;28;19913;-75
2023/04/01 03:02:17;;;;;;;;;;;11.30;99.90;;;;;;5055056;28;19915;-75
2023/04/01 03:04:42;;;;;;;;;;;11.20;99.90;;;;;;5053238;28;19936;-75
2023/04/01 03:07:09;;;;;;;;;;;11.20;99.90;;;;;;5054104;28;20370;-74
2023/04/01 03:09:36;;;;;;;;;;;11.30;99.90;;;;;;5055906;28;19996;-74
2023/04/01 03:12:02;;;;;;;;;;;11.30;99.90;;;;;;5055340;28;19947;-74
2023/04/01 03:14:28;;;;;;;;;;;11.30;99.90;;;;;;5055144;28;19909;-74
2023/04/01 03:16:54;;;;;;;;;;;11.30;99.90;;;;;;5054357;28;19909;-74
2023/04/01 03:19:20;;;;;;;;;;;11.20;99.90;;;;;;5054913;28;19909;-74
2023/04/01 03:21:46;;;;;;;;;;;11.30;99.90;;;;;;5057915;28;19915;-75
2023/04/01 03:24:11;;;;;;;;;;;11.20;99.90;;;;;;5058293;28;19917;-74
2023/04/01 03:26:37;;;;;;;;;;;11.20;99.90;;;;;;5057537;28;20011;-74
2023/04/01 03:29:03;;;;;;;;;;;11.20;99.90;;;;;;5059282;28;19916;-74
2023/04/01 03:31:29;;;;;;;;;;;11.20;99.90;;;;;;5057488;28;19931;-74
2023/04/01 03:33:58;;;;;;;;;;;11.20;99.90;;;;;;5058754;28;19913;-74
2023/04/01 03:36:23;;;;;;;;;;;11.20;99.90;;;;;;5059637;28;19924;-74
2023/04/01 03:38:49;;;;;;;;;;;11.20;99.90;;;;;;5059894;28;19932;-74
2023/04/01 03:41:16;;;;;;;;;;;11.20;99.90;;;;;;5059200;28;20068;-74
2023/04/01 03:43:42;;;;;;;;;;;11.10;99.90;;;;;;5059180;28;20006;-74
2023/04/01 03:46:08;;;;;;;;;;;11.10;99.90;;;;;;5058611;28;19958;-74
2023/04/01 03:48:33;;;;;;;;;;;11.10;99.90;;;;;;5057696;28;19916;-74
2023/04/01 03:50:59;;;;;;;;;;;11.10;99.90;;;;;;5056085;28;19909;-74
2023/04/01 03:53:26;;;;;;;;;;;11.10;99.90;;;;;;5055677;28;19909;-74
2023/04/01 03:55:52;;;;;;;;;;;11.10;99.90;;;;;;5055858;28;20375;-74
2023/04/01 03:58:18;;;;;;;;;;;11.00;99.90;;;;;;5056263;28;19916;-74
2023/04/01 04:00:44;;;;;;;;;;;10.90;99.90;;;;;;5056010;28;19908;-73
2023/04/01 04:03:10;;;;;;;;;;;10.90;99.90;;;;;;5056347;28;19913;-74
2023/04/01 04:05:36;;;;;;;;;;;11.00;99.90;;;;;;5056926;28;20282;-74
2023/04/01 04:08:02;;;;;;;;;;;11.00;99.90;;;;;;5055869;28;20001;-74
2023/04/01 04:10:29;;;;;;;;;;;10.90;99.90;;;;;;5056627;28;20011;-74
2023/04/01 04:12:55;;;;;;;;;;;11.00;99.90;;;;;;5057556;28;20371;-74
2023/04/01 04:15:20;;;;;;;;;;;11.00;99.90;;;;;;5057782;28;19944;-74
2023/04/01 04:17:46;;;;;;;;;;;11.10;99.90;;;;;;5053519;28;19955;-73
2023/04/01 04:20:12;;;;;;;;;;;11.10;99.90;;;;;;5053862;28;19916;-73
2023/04/01 04:22:38;;;;;;;;;;;11.10;99.90;;;;;;5052081;28;19909;-73
2023/04/01 04:25:04;;;;;;;;;;;11.10;99.90;;;;;;5052061;28;19916;-73
2023/04/01 04:27:30;;;;;;;;;;;11.00;99.90;;;;;;5053712;28;19928;-74
2023/04/01 04:29:56;;;;;;;;;;;11.00;99.90;;;;;;5054106;28;19909;-73
2023/04/01 04:32:21;;;;;;;;;;;11.00;99.90;;;;;;5054084;28;19932;-73
2023/04/01 04:34:50;;;;;;;;;;;10.90;99.90;;;;;;5053667;28;20143;-73
2023/04/01 04:37:16;;;;;;;;;;;10.90;99.90;;;;;;5052220;28;19909;-73
2023/04/01 04:39:42;;;;;;;;;;;10.90;99.90;;;;;;5053895;28;20401;-73
2023/04/01 04:42:07;;;;;;;;;;;10.80;99.90;;;;;;5054010;28;19909;-74
2023/04/01 04:44:33;;;;;;;;;;;10.70;99.90;;;;;;5052185;28;19980;-73
2023/04/01 04:46:59;;;;;;;;;;;10.70;99.90;;;;;;5052804;28;20283;-73
2023/04/01 04:49:25;;;;;;;;;;;10.70;99.90;;;;;;5052196;28;19944;-74
2023/04/01 04:51:52;;;;;;;;;;;10.70;99.90;;;;;;5052297;28;20374;-74
2023/04/01 04:54:17;;;;;;;;;;;10.60;99.90;;;;;;5051737;28;19908;-74
2023/04/01 04:56:43;;;;;;;;;;;10.60;99.90;;;;;;5053225;28;19984;-74
2023/04/01 04:59:09;;;;;;;;;;;10.50;99.90;;;;;;5053520;28;19908;-74
2023/04/01 05:01:38;;;;;;;;;;;10.30;99.90;;;;;;5053486;28;19909;-75
2023/04/01 05:04:04;;;;;;;;;;;10.30;99.90;;;;;;5052813;28;19909;-74
2023/04/01 05:06:31;;;;;;;;;;;10.30;99.90;;;;;;5053509;28;19992;-74
2023/04/01 05:08:56;;;;;;;;;;;10.20;99.90;;;;;;5053298;28;20374;-74
2023/04/01 05:11:23;;;;;;;;;;;10.10;99.90;;;;;;5053262;28;19999;-74
2023/04/01 05:13:50;;;;;;;;;;;10.10;99.90;;;;;;5052960;28;19908;-74
2023/04/01 05:16:17;;;;;;;;;;;10.00;99.90;;;;;;5053458;28;19919;-74
2023/04/01 05:18:42;;;;;;;;;;;10.10;99.90;;;;;;5052426;28;19959;-74
2023/04/01 05:21:09;;;;;;;;;;;10.20;99.90;;;;;;5057316;28;19912;-74
2023/04/01 05:23:35;;;;;;;;;;;10.40;99.90;;;;;;5056647;28;20294;-74
2023/04/01 05:26:07;;;;;;;;;;;10.50;99.90;;;;;;5056875;28;19917;-74
2023/04/01 05:28:33;;;;;;;;;;;10.40;99.90;;;;;;5056976;28;19954;-74
2023/04/01 05:31:00;;;;;;;;;;;10.50;99.90;;;;;;5055171;28;20003;-74
2023/04/01 05:33:29;;;;;;;;;;;10.50;99.90;;;;;;5056548;28;19909;-74
2023/04/01 05:35:55;;;;;;;;;;;10.50;99.90;;;;;;5056856;28;20252;-74
2023/04/01 05:38:21;;;;;;;;;;;10.60;99.90;;;;;;5056829;28;19975;-74
2023/04/01 05:40:47;;;;;;;;;;;10.70;99.90;;;;;;5056918;28;20018;-74
2023/04/01 05:43:13;;;;;;;;;;;10.80;99.90;;;;;;5056378;28;19915;-74
2023/04/01 05:45:39;;;;;;;;;;;10.80;99.90;;;;;;5055182;28;20016;-74
2023/04/01 05:48:05;;;;;;;;;;;10.90;99.90;;;;;;5056948;28;19948;-74
2023/04/01 05:50:30;;;;;;;;;;;10.90;99.90;;;;;;5055128;28;19917;-74
2023/04/01 05:52:56;;;;;;;;;;;11.00;99.90;;;;;;5054713;28;19940;-74
2023/04/01 05:55:22;;;;;;;;;;;11.10;99.90;;;;;;5056375;28;20008;-74
2023/04/01 05:57:49;;;;;;;;;;;11.10;99.90;;;;;;5055673;28;19908;-74
2023/04/01 06:00:15;;;;;;;;;;;11.10;99.90;;;;;;5055974;28;19963;-74
2023/04/01 06:02:48;;;;;;;;;;;11.20;99.90;;;;;;5056025;28;19935;-74
2023/04/01 06:05:19;;;;;;;;;;;11.20;99.90;;;;;;5055361;28;19913;-74
2023/04/01 06:07:45;;;;;;;;;;;11.30;99.90;;;;;;5054988;28;19916;-74
2023/04/01 06:10:20;;;;;;;;;;;11.30;99.90;;;;;;5055855;28;19913;-74
2023/04/01 06:12:54;;;;;;;;;;;11.40;99.90;;;;;;5055539;28;20291;-74
2023/04/01 06:15:25;;;;;;;;;;;11.40;99.90;;;;;;5056312;28;19916;-74
2023/04/01 06:18:09;;;;;;;;;;;11.50;99.90;;;;;;5056493;28;19944;-74
2023/04/01 06:20:50;;;;;;;;;;;11.60;99.90;;;;;;5054018;28;19909;-74
2023/04/01 06:23:16;;;;;;;;;;;11.70;99.90;;;;;;5053951;28;20299;-74
2023/04/01 06:25:48;;;;;;;;;;;11.80;99.90;;;;;;5054327;28;19913;-74
2023/04/01 06:28:32;;;;;;;;;;;11.90;99.90;;;;;;5054663;28;19909;-74
2023/04/01 06:31:04;;;;;;;;;;;12.10;99.90;;;;;;5053578;28;19991;-74
2023/04/01 06:33:31;;;;;;;;;;;12.10;99.90;;;;;;5053920;28;20102;-74
2023/04/01 06:36:09;;;;;;;;;;;12.10;99.90;;;;;;5055908;28;19909;-74
2023/04/01 06:38:37;;;;;;;;;;;12.10;99.90;;;;;;5054473;28;19962;-75
2023/04/01 06:41:06;;;;;;;;;;;12.00;99.90;;;;;;5054847;28;20094;-74
2023/04/01 06:43:50;;;;;;;;;;;12.10;99.90;;;;;;5054300;28;19909;-74
2023/04/01 06:46:31;;;;;;;;;;;12.10;99.90;;;;;;5056185;28;19913;-74
2023/04/01 06:49:00;;;;;;;;;;;12.20;99.90;;;;;;5054286;28;20014;-74
2023/04/01 06:51:35;;;;;;;;;;;12.30;99.90;;;;;;5054533;28;19916;-74
2023/04/01 06:54:00;;;;;;;;;;;12.20;99.90;;;;;;5054796;28;19912;-74
2023/04/01 06:56:28;;;;;;;;;;;12.30;99.90;;;;;;5054926;28;19916;-74
2023/04/01 06:58:56;;;;;;;;;;;12.40;99.90;;;;;;5055323;28;19916;-74
2023/04/01 07:01:26;;;;;;;;;;;12.50;99.90;;;;;;5055575;28;19909;-74
2023/04/01 07:04:04;;;;;;;;;;;12.60;99.90;;;;;;5055344;28;19908;-74
2023/04/01 07:06:39;;;;;;;;;;;12.80;99.90;;;;;;5053847;28;20394;-74
2023/04/01 07:09:08;;;;;;;;;;;12.90;99.90;;;;;;5055433;28;19995;-74
2023/04/01 07:11:35;;;;;;;;;;;12.90;99.90;;;;;;5055372;28;19909;-74
2023/04/01 07:14:07;;;;;;;;;;;13.10;99.90;;;;;;5054413;28;19913;-74
2023/04/01 07:16:36;;;;;;;;;;;13.10;99.90;;;;;;5055513;28;20338;-74
2023/04/01 07:19:05;;;;;;;;;;;13.20;99.90;;;;;;5055554;28;20298;-75
2023/04/01 07:21:36;;;;;;;;;;;13.40;99.90;;;;;;5055027;28;20305;-74
2023/04/01 07:24:09;;;;;;;;;;;13.50;99.90;;;;;;5054569;28;20290;-74
2023/04/01 07:26:34;;;;;;;;;;;13.50;99.90;;;;;;5053484;28;20443;-75
2023/04/01 07:29:00;;;;;;;;;;;13.60;99.90;;;;;;5054817;28;20011;-74
2023/04/01 07:31:44;;;;;;;;;;;13.50;99.90;;;;;;5054866;28;20004;-74
2023/04/01 07:34:16;;;;;;;;;;;13.60;99.90;;;;;;5054817;28;19916;-74
2023/04/01 07:36:44;;;;;;;;;;;13.70;99.90;;;;;;5053889;28;19965;-74
2023/04/01 07:39:25;;;;;;;;;;;13.70;99.90;;;;;;5052882;28;20305;-74
2023/04/01 07:41:54;;;;;;;;;;;13.90;99.90;;;;;;5053605;28;20326;-74
2023/04/01 07:44:25;;;;;;;;;;;14.00;99.90;;;;;;5054452;28;19919;-75
2023/04/01 07:46:55;;;;;;;;;;;14.00;99.90;;;;;;5054142;28;20410;-75
2023/04/01 07:49:33;;;;;;;;;;;14.00;99.90;;;;;;5053379;28;19912;-74
2023/04/01 07:51:59;;;;;;;;;;;14.10;99.90;;;;;;5053400;28;20359;-74
2023/04/01 07:54:43;;;;;;;;;;;14.30;99.90;;;;;;5053960;28;19915;-74
2023/04/01 07:58:13;;;;;;;;;;;14.40;99.90;;;;;;5055421;28;19980;-73
2023/04/01 08:00:13;;;;;;;;;;;14.40;99.90;;;;;;5049398;28;19909;-73
2023/04/01 08:02:58;;;;;;;;;;;14.30;99.90;;;;;;5051370;28;19919;-73
2023/04/01 08:05:27;;;;;;;;;;;14.40;99.90;;;;;;5053197;28;19919;-73
2023/04/01 08:07:55;;;;;;;;;;;14.50;99.90;;;;;;5054391;28;19909;-73
2023/04/01 08:10:35;;;;;;;;;;;14.50;99.90;;;;;;5052030;28;19935;-73
2023/04/01 08:13:06;;;;;;;;;;;14.60;99.90;;;;;;5052683;28;19913;-73
2023/04/01 08:15:38;;;;;;;;;;;14.70;99.90;;;;;;5051352;28;19912;-73
2023/04/01 08:18:09;;;;;;;;;;;14.80;99.90;;;;;;5053155;28;19991;-72
2023/04/01 08:20:44;;;;;;;;;;;14.90;99.90;;;;;;5053234;28;19909;-73
2023/04/01 08:23:10;;;;;;;;;;;14.90;99.90;;;;;;5050974;28;19980;-73
2023/04/01 08:25:39;;;;;;;;;;;14.90;99.90;;;;;;5051926;28;19913;-72
2023/04/01 08:28:07;;;;;;;;;;;15.00;99.90;;;;;;5052264;28;20371;-73
2023/04/01 08:30:45;;;;;;;;;;;15.00;99.90;;;;;;5053619;28;19909;-72
2023/04/01 08:33:26;;;;;;;;;;;15.00;99.90;;;;;;5053607;28;19908;-73
2023/04/01 08:35:57;;;;;;;;;;;15.00;99.90;;;;;;5054008;28;19908;-74
2023/04/01 08:38:29;;;;;;;;;;;15.00;99.90;;;;;;5052192;28;19909;-75
2023/04/01 08:40:57;;;;;;;;;;;14.90;99.90;;;;;;5051973;28;19944;-73
2023/04/01 08:43:26;;;;;;;;;;;14.80;99.90;;;;;;5053146;28;19963;-74
2023/04/01 08:45:52;;;;;;;;;;;14.70;99.90;;;;;;5056381;28;19976;-75
2023/04/01 08:48:54;;;;;;;;;;;14.70;99.90;;;;;;5054633;28;19909;-74
2023/04/01 08:51:19;;;;;;;;;;;14.60;99.90;;;;;;5050846;28;20358;-75
2023/04/01 08:53:48;;;;;;;;;;;14.60;99.90;;;;;;5055698;28;19915;-74
2023/04/01 08:56:20;;;;;;;;;;;14.50;99.90;;;;;;5060532;28;19915;-74
2023/04/01 08:58:55;;;;;;;;;;;14.60;99.90;;;;;;5059100;28;19979;-74
2023/04/01 09:01:21;;;;;;;;;;;14.70;99.90;;;;;;5059840;28;20302;-75
2023/04/01 09:04:02;;;;;;;;;;;14.70;99.90;;;;;;5057940;28;19909;-74
2023/04/01 09:06:40;;;;;;;;;;;14.60;99.90;;;;;;5059022;28;19924;-75
2023/04/01 09:09:05;;;;;;;;;;;14.50;99.90;;;;;;5058816;28;20323;-74
2023/04/01 09:11:40;;;;;;;;;;;14.50;99.90;;;;;;5059411;28;19915;-76
2023/04/01 09:14:27;;;;;;;;;;;14.60;99.90;;;;;;5058594;28;21182;-75
2023/04/01 09:17:11;;;;;;;;;;;14.80;99.90;;;;;;5060766;28;20381;-75
2023/04/01 09:19:49;;;;;;;;;;;14.90;99.90;;;;;;5059997;28;19919;-75
2023/04/01 09:22:14;;;;;;;;;;;14.90;99.90;;;;;;5059618;28;19924;-74
2023/04/01 09:24:43;;;;;;;;;;;15.10;99.90;;;;;;5057565;28;19942;-74
2023/04/01 09:27:09;;;;;;;;;;;15.10;99.90;;;;;;5059503;28;19915;-75
2023/04/01 09:29:53;;;;;;;;;;;15.20;99.90;;;;;;5059912;28;19913;-75
2023/04/01 09:32:37;;;;;;;;;;;15.30;99.90;;;;;;5059861;28;19916;-75
2023/04/01 09:35:06;;;;;;;;;;;15.30;99.90;;;;;;5059063;28;19909;-74
2023/04/01 09:37:36;;;;;;;;;;;15.30;99.90;;;;;;5059023;28;19959;-74
2023/04/01 09:40:18;;;;;;;;;;;15.20;99.90;;;;;;5058749;28;20354;-76
2023/04/01 09:42:46;;;;;;;;;;;15.30;99.90;;;;;;5058607;28;20008;-74
2023/04/01 09:45:24;;;;;;;;;;;15.20;99.90;;;;;;5060076;28;19917;-75
2023/04/01 09:48:04;;;;;;;;;;;15.20;99.90;;;;;;5059716;28;19908;-74
2023/04/01 09:50:48;;;;;;;;;;;15.20;99.90;;;;;;5059523;28;19908;-74
2023/04/01 09:53:21;;;;;;;;;;;15.30;99.90;;;;;;5068900;28;19995;-74
2023/04/01 09:55:46;;;;;;;;;;;15.30;99.90;;;;;;5070790;28;19909;-74
2023/04/01 09:58:24;;;;;;;;;;;15.40;99.90;;;;;;5060071;28;20244;-74
2023/04/01 10:01:08;;;;;;;;;;;15.40;99.90;;;;;;5057958;28;19921;-74
2023/04/01 10:03:43;;;;;;;;;;;15.50;99.90;;;;;;5059128;28;19908;-74
2023/04/01 10:06:28;;;;;;;;;;;15.60;99.90;;;;;;5055599;28;19913;-74
2023/04/01 10:09:22;;;;;;;;;;;15.60;99.90;;;;;;5055978;28;19913;-74
2023/04/01 10:12:00;;;;;;;;;;;15.70;99.90;;;;;;5053800;28;19920;-74
2023/04/01 10:14:41;;;;;;;;;;;15.70;99.90;;;;;;5056366;28;19944;-75
2023/04/01 10:17:13;;;;;;;;;;;15.80;99.90;;;;;;5055808;28;20294;-74
2023/04/01 10:19:57;;;;;;;;;;;15.80;99.90;;;;;;5056030;28;20011;-74
2023/04/01 10:22:33;;;;;;;;;;;15.70;99.90;;;;;;5054786;28;20007;-75
2023/04/01 10:25:02;;;;;;;;;;;15.80;99.90;;;;;;5056251;28;19995;-75
2023/04/01 10:27:49;;;;;;;;;;;15.80;99.90;;;;;;5054424;28;19991;-74
2023/04/01 10:30:21;;;;;;;;;;;15.90;99.90;;;;;;5056105;28;19908;-75
2023/04/01 10:33:06;;;;;;;;;;;15.90;99.90;;;;;;5054003;28;19910;-75
2023/04/01 10:35:50;;;;;;;;;;;15.90;99.90;;;;;;5056160;28;20343;-74
2023/04/01 10:38:25;;;;;;;;;;;15.90;99.90;;;;;;5055888;28;20355;-75
2023/04/01 10:40:53;;;;;;;;;;;16.00;99.90;;;;;;5055342;28;19923;-75
2023/04/01 10:43:19;;;;;;;;;;;16.00;99.90;;;;;;5054338;28;19940;-75
2023/04/01 10:45:45;;;;;;;;;;;16.00;99.90;;;;;;5055045;28;19952;-74
2023/04/01 10:48:21;;;;;;;;;;;16.00;99.90;;;;;;5053845;28;20034;-75
2023/04/01 10:50:47;;;;;;;;;;;16.00;99.90;;;;;;5055723;28;19956;-75
2023/04/01 10:53:28;;;;;;;;;;;16.00;99.90;;;;;;5054775;28;19909;-74
2023/04/01 10:55:59;;;;;;;;;;;16.00;99.90;;;;;;5053886;28;19909;-75
2023/04/01 10:58:58;;;;;;;;;;;16.00;99.90;;;;;;5053423;28;19916;-75
2023/04/01 11:01:42;;;;;;;;;;;15.90;99.90;;;;;;5052839;28;19971;-75
2023/04/01 11:04:33;;;;;;;;;;;15.90;99.90;;;;;;5054732;28;19978;-74
2023/04/01 11:06:58;;;;;;;;;;;15.80;99.90;;;;;;5053639;28;20071;-74
2023/04/01 11:09:24;;;;;;;;;;;15.80;99.90;;;;;;5053760;28;20003;-74
2023/04/01 11:11:59;;;;;;;;;;;15.90;99.90;;;;;;5054880;28;20385;-74
2023/04/01 11:14:43;;;;;;;;;;;16.00;99.90;;;;;;5054889;28;19916;-74
2023/04/01 11:17:26;;;;;;;;;;;16.00;99.90;;;;;;5053048;28;20075;-75
2023/04/01 11:20:02;;;;;;;;;;;16.00;99.90;;;;;;5054682;28;19908;-75
2023/04/01 11:22:35;;;;;;;;;;;16.20;99.90;;;;;;5052649;28;19931;-74
2023/04/01 11:25:09;;;;;;;;;;;16.40;99.90;;;;;;5054344;28;19921;-75
2023/04/01 11:27:40;;;;;;;;;;;16.40;99.90;;;;;;5053427;28;19913;-74
2023/04/01 11:30:09;;;;;;;;;;;16.50;99.90;;;;;;5055446;28;20004;-74
2023/04/01 11:32:54;;;;;;;;;;;16.60;99.90;;;;;;5053283;28;19944;-74
2023/04/01 11:35:38;;;;;;;;;;;16.60;99.90;;;;;;5053272;28;19916;-75
2023/04/01 11:38:22;;;;;;;;;;;16.60;99.90;;;;;;5053107;28;19931;-74
2023/04/01 11:41:14;;;;;;;;;;;16.60;99.90;;;;;;5053733;28;19909;-75
2023/04/01 11:44:06;;;;;;;;;;;16.70;99.90;;;;;;5051708;28;19915;-74
2023/04/01 11:46:37;;;;;;;;;;;16.80;99.90;;;;;;5053955;28;20007;-75
2023/04/01 11:49:12;;;;;;;;;;;16.80;99.90;;;;;;5054330;28;19909;-75
2023/04/01 11:51:51;;;;;;;;;;;16.90;99.90;;;;;;5053024;28;19909;-75
2023/04/01 11:54:32;;;;;;;;;;;16.90;99.90;;;;;;5054770;28;19908;-74
2023/04/01 11:57:16;;;;;;;;;;;16.90;99.90;;;;;;5053655;28;19955;-74
2023/04/01 11:59:57;;;;;;;;;;;17.00;99.90;;;;;;5054249;28;19995;-75
2023/04/01 12:02:22;;;;;;;;;;;17.00;99.90;;;;;;5054123;28;19909;-75
2023/04/01 12:04:48;;;;;;;;;;;17.00;99.90;;;;;;5052202;28;19939;-75
2023/04/01 12:07:34;;;;;;;;;;;17.10;99.90;;;;;;5054462;28;19919;-75
2023/04/01 12:10:06;;;;;;;;;;;17.00;99.90;;;;;;5051601;28;19909;-74
2023/04/01 12:12:50;;;;;;;;;;;17.10;99.90;;;;;;5053821;28;19916;-74
2023/04/01 12:15:31;;;;;;;;;;;17.20;99.90;;;;;;5052366;28;19912;-77
2023/04/01 12:18:16;;;;;;;;;;;17.30;99.90;;;;;;5052215;28;19913;-74
2023/04/01 12:20:54;;;;;;;;;;;17.30;99.90;;;;;;5054496;28;19916;-75
2023/04/01 12:23:25;;;;;;;;;;;17.30;99.90;;;;;;5051829;28;19917;-74
2023/04/01 12:25:51;;;;;;;;;;;17.40;99.90;;;;;;5053774;28;19924;-74
2023/04/01 12:28:16;;;;;;;;;;;17.40;99.90;;;;;;5052246;28;19909;-74
2023/04/01 12:30:46;;;;;;;;;;;17.40;99.90;;;;;;5051308;28;19916;-75
2023/04/01 12:33:30;;;;;;;;;;;17.50;99.90;;;;;;5052264;28;20003;-74
2023/04/01 12:35:58;;;;;;;;;;;17.40;99.90;;;;;;5052311;28;19909;-74
2023/04/01 12:38:24;;;;;;;;;;;17.40;99.90;;;;;;5052697;28;19915;-74
2023/04/01 12:41:11;;;;;;;;;;;17.40;99.90;;;;;;5053308;28;19987;-74
2023/04/01 12:43:43;;;;;;;;;;;17.30;99.90;;;;;;5051904;28;20389;-74
2023/04/01 12:46:35;;;;;;;;;;;17.30;99.90;;;;;;5052367;28;19920;-74
2023/04/01 12:49:19;;;;;;;;;;;17.20;99.90;;;;;;5054623;28;19913;-74
2023/04/01 12:51:47;;;;;;;;;;;17.10;99.90;;;;;;5053667;28;19912;-74
2023/04/01 12:54:16;;;;;;;;;;;17.00;99.90;;;;;;5051819;28;20003;-74
2023/04/01 12:56:43;;;;;;;;;;;17.10;99.90;;;;;;5053160;28;19998;-74
2023/04/01 12:59:23;;;;;;;;;;;16.90;99.90;;;;;;5053786;28;19908;-74
2023/04/01 13:01:55;;;;;;;;;;;16.80;99.90;;;;;;5053696;28;19909;-74
2023/04/01 13:04:30;;;;;;;;;;;16.80;99.90;;;;;;5052210;28;19920;-74
2023/04/01 13:07:02;;;;;;;;;;;16.60;99.90;;;;;;5052079;28;20295;-74
2023/04/01 13:09:33;;;;;;;;;;;16.60;99.90;;;;;;5053341;28;19973;-74
2023/04/01 13:12:05;;;;;;;;;;;16.40;99.90;;;;;;5053213;28;19909;-76
2023/04/01 13:14:52;;;;;;;;;;;16.30;99.90;;;;;;5055407;28;19995;-74
2023/04/01 13:17:22;;;;;;;;;;;16.10;99.90;;;;;;5053567;28;19959;-74
2023/04/01 13:19:51;;;;;;;;;;;16.00;99.90;;;;;;5053516;28;19909;-74
2023/04/01 13:22:35;;;;;;;;;;;15.80;99.90;;;;;;5052801;28;19909;-74
2023/04/01 13:25:04;;;;;;;;;;;15.60;99.90;;;;;;5052484;28;19971;-73
2023/04/01 13:27:33;;;;;;;;;;;15.50;99.90;;;;;;5053060;28;20282;-74
2023/04/01 13:29:59;;;;;;;;;;;15.50;99.90;;;;;;5052915;28;20003;-74
2023/04/01 13:32:43;;;;;;;;;;;15.40;99.90;;;;;;5055230;28;19944;-74
2023/04/01 13:35:18;;;;;;;;;;;15.50;99.90;;;;;;5052579;28;19923;-73
2023/04/01 13:38:02;;;;;;;;;;;15.40;99.90;;;;;;5051562;28;19973;-73
2023/04/01 13:40:28;;;;;;;;;;;15.40;99.90;;;;;;5056208;28;19948;-73
2023/04/01 13:42:54;;;;;;;;;;;15.40;99.90;;;;;;5054935;28;20578;-74
2023/04/01 13:45:20;;;;;;;;;;;15.40;99.90;;;;;;5056170;28;19913;-74
2023/04/01 13:47:49;;;;;;;;;;;15.40;99.90;;;;;;5056742;28;19909;-74
2023/04/01 13:50:15;;;;;;;;;;;15.40;99.90;;;;;;5056178;28;20209;-74
2023/04/01 13:52:59;;;;;;;;;;;15.40;99.90;;;;;;5055950;28;20447;-73
2023/04/01 13:55:44;;;;;;;;;;;15.40;99.90;;;;;;5054594;28;19936;-73
2023/04/01 13:58:12;;;;;;;;;;;15.30;99.90;;;;;;5054485;28;20370;-74
2023/04/01 14:00:56;;;;;;;;;;;15.30;99.90;;;;;;5055727;28;19932;-73
2023/04/01 14:03:41;;;;;;;;;;;15.30;99.90;;;;;;5055866;28;20440;-74
2023/04/01 14:06:15;;;;;;;;;;;15.40;99.90;;;;;;5055009;28;19924;-74
2023/04/01 14:08:56;;;;;;;;;;;15.30;99.90;;;;;;5056318;28;20331;-73
2023/04/01 14:11:39;;;;;;;;;;;15.40;99.90;;;;;;5055560;28;19908;-73
2023/04/01 14:14:11;;;;;;;;;;;15.40;99.90;;;;;;5055965;28;19915;-74
2023/04/01 14:16:46;;;;;;;;;;;15.40;99.90;;;;;;5055892;28;19916;-73
2023/04/01 14:19:12;;;;;;;;;;;15.60;99.90;;;;;;5054584;28;19962;-73
2023/04/01 14:21:37;;;;;;;;;;;15.70;99.90;;;;;;5055857;28;19916;-74
2023/04/01 14:24:03;;;;;;;;;;;15.80;99.90;;;;;;5055379;28;19917;-74
2023/04/01 14:26:28;;;;;;;;;;;15.90;99.90;;;;;;5055633;28;19912;-74
2023/04/01 14:29:26;;;;;;;;;;;15.90;99.90;;;;;;5055808;28;19955;-74
2023/04/01 14:31:58;;;;;;;;;;;15.90;99.90;;;;;;5054180;28;19951;-74
2023/04/01 14:34:36;;;;;;;;;;;15.90;99.90;;;;;;5055300;28;20003;-74
2023/04/01 14:37:20;;;;;;;;;;;15.90;99.90;;;;;;5055661;28;19916;-74
2023/04/01 14:40:05;;;;;;;;;;;16.00;99.90;;;;;;5054437;28;19935;-76
2023/04/01 14:42:36;;;;;;;;;;;16.00;99.90;;;;;;5052158;28;19915;-73